sensor_id;sensor_type;location;lat;lon;timestamp;temperature;humidity
3842;DHT22;1936;47.074;15.336;2023-10-08T00:01:40;12.10;99.90
3842;DHT22;1936;47.074;15.336;2023-10-08T00:03:45;12.10;99.90
3842;DHT22;1936;47.074;15.336;2023-10-08T00:05:52;12.10;99.90
3842;DHT22;1936;47.074;15.336;2023-10-08T00:07:55;12.10;99.90
3842;DHT22;1936;47.074;15.336;2023-10-08T00:09:59;12.10;99.90
3842;DHT22;1936;47.074;15.336;2023-10-08T00:12:05;12.00;99.90
3842;DHT22;1936;47.074;15.336;2023-10-08T00:14:10;12.10;99.90
3842;DHT22;1936;47.074;15.336;2023-10-08T00:16:20;12.10;99.90
3842;DHT22;1936;47.074;15.336;2023-10-08T00:18:24;12.10;99.90
3842;DHT22;1936;47.074;15.336;2023-10-08T00:20:27;12.10;99.90
3842;DHT22;1936;47.074;15.336;2023-10-08T00:22:37;12.10;99.90
3842;DHT22;1936;47.074;15.336;2023-10-08T00:24:41;12.20;99.90
3842;DHT22;1936;47.074;15.336;2023-10-08T00:26:45;12.30;99.90
3842;DHT22;1936;47.074;15.336;2023-10-08T00:28:50;12.40;99.90
3842;DHT22;1936;47.074;15.336;2023-10-08T00:30:54;12.30;99.90
3842;DHT22;1936;47.074;15.336;2023-10-08T00:32:57;12.30;99.90
3842;DHT22;1936;47.074;15.336;2023-10-08T00:35:01;12.30;99.90
3842;DHT22;1936;47.074;15.336;2023-10-08T00:37:07;12.30;99.90
3842;DHT22;1936;47.074;15.336;2023-10-08T00:39:13;12.40;99.90
3842;DHT22;1936;47.074;15.336;2023-10-08T00:41:18;12.40;99.90
3842;DHT22;1936;47.074;15.336;2023-10-08T00:43:30;12.30;99.90
3842;DHT22;1936;47.074;15.336;2023-10-08T00:45:36;12.20;99.90
3842;DHT22;1936;47.074;15.336;2023-10-08T00:47:45;12.00;99.90
3842;DHT22;1936;47.074;15.336;2023-10-08T00:49:49;11.90;99.90
3842;DHT22;1936;47.074;15.336;2023-10-08T00:52:12;11.80;99.90
3842;DHT22;1936;47.074;15.336;2023-10-08T00:54:28;11.80;99.90
3842;DHT22;1936;47.074;15.336;2023-10-08T00:56:36;11.80;99.90
3842;DHT22;1936;47.074;15.336;2023-10-08T00:58:55;11.70;99.90
3842;DHT22;1936;47.074;15.336;2023-10-08T01:00:59;11.60;99.90
3842;DHT22;1936;47.074;15.336;2023-10-08T01:03:05;11.60;99.90
3842;DHT22;1936;47.074;15.336;2023-10-08T01:05:18;11.60;99.90
3842;DHT22;1936;47.074;15.336;2023-10-08T01:07:28;11.50;99.90
3842;DHT22;1936;47.074;15.336;2023-10-08T01:09:33;11.50;99.90
3842;DHT22;1936;47.074;15.336;2023-10-08T01:11:37;11.40;99.90
3842;DHT22;1936;47.074;15.336;2023-10-08T01:13:48;11.40;99.90
3842;DHT22;1936;47.074;15.336;2023-10-08T01:15:52;11.50;99.90
3842;DHT22;1936;47.074;15.336;2023-10-08T01:17:58;11.50;99.90
3842;DHT22;1936;47.074;15.336;2023-10-08T01:20:04;11.50;99.90
3842;DHT22;1936;47.074;15.336;2023-10-08T01:22:23;11.50;99.90
3842;DHT22;1936;47.074;15.336;2023-10-08T01:24:30;11.50;99.90
3842;DHT22;1936;47.074;15.336;2023-10-08T01:26:36;11.50;99.90
3842;DHT22;1936;47.074;15.336;2023-10-08T01:28:42;11.50;99.90
3842;DHT22;1936;47.074;15.336;2023-10-08T01:30:46;11.50;99.90
3842;DHT22;1936;47.074;15.336;2023-10-08T01:32:49;11.50;99.90
3842;DHT22;1936;47.074;15.336;2023-10-08T01:34:54;11.40;99.90
3842;DHT22;1936;47.074;15.336;2023-10-08T01:36:58;11.40;99.90
3842;DHT22;1936;47.074;15.336;2023-10-08T01:39:05;11.40;99.90
3842;DHT22;1936;47.074;15.336;2023-10-08T01:41:09;11.40;99.90
3842;DHT22;1936;47.074;15.336;2023-10-08T01:43:22;11.40;99.90
3842;DHT22;1936;47.074;15.336;2023-10-08T01:45:29;11.50;99.90
3842;DHT22;1936;47.074;15.336;2023-10-08T01:47:34;11.50;99.90
3842;DHT22;1936;47.074;15.336;2023-10-08T01:49:38;11.70;99.90
3842;DHT22;1936;47.074;15.336;2023-10-08T01:51:42;11.60;99.90
3842;DHT22;1936;47.074;15.336;2023-10-08T01:53:49;11.90;99.90
3842;DHT22;1936;47.074;15.336;2023-10-08T01:55:55;11.80;99.90
3842;DHT22;1936;47.074;15.336;2023-10-08T01:57:58;11.80;99.90
3842;DHT22;1936;47.074;15.336;2023-10-08T02:00:03;11.70;99.90
3842;DHT22;1936;47.074;15.336;2023-10-08T02:02:11;11.70;99.90
3842;DHT22;1936;47.074;15.336;2023-10-08T02:04:17;11.60;99.90
3842;DHT22;1936;47.074;15.336;2023-10-08T02:06:23;11.60;99.90
3842;DHT22;1936;47.074;15.336;2023-10-08T02:08:27;11.60;99.90
3842;DHT22;1936;47.074;15.336;2023-10-08T02:10:33;11.60;99.90
3842;DHT22;1936;47.074;15.336;2023-10-08T02:12:37;11.40;99.90
3842;DHT22;1936;47.074;15.336;2023-10-08T02:14:41;11.30;99.90
3842;DHT22;1936;47.074;15.336;2023-10-08T02:16:46;11.20;99.90
3842;DHT22;1936;47.074;15.336;2023-10-08T02:18:49;11.30;99.90
3842;DHT22;1936;47.074;15.336;2023-10-08T02:20:53;11.30;99.90
3842;DHT22;1936;47.074;15.336;2023-10-08T02:22:57;11.20;99.90
3842;DHT22;1936;47.074;15.336;2023-10-08T02:25:02;11.30;99.90
3842;DHT22;1936;47.074;15.336;2023-10-08T02:27:06;11.20;99.90
3842;DHT22;1936;47.074;15.336;2023-10-08T02:29:10;11.20;99.90
3842;DHT22;1936;47.074;15.336;2023-10-08T02:31:14;11.10;99.90
3842;DHT22;1936;47.074;15.336;2023-10-08T02:33:18;11.10;99.90
3842;DHT22;1936;47.074;15.336;2023-10-08T02:35:22;11.10;99.90
3842;DHT22;1936;47.074;15.336;2023-10-08T02:37:26;11.10;99.90
3842;DHT22;1936;47.074;15.336;2023-10-08T02:39:30;11.10;99.90
3842;DHT22;1936;47.074;15.336;2023-10-08T02:41:37;11.00;99.90
3842;DHT22;1936;47.074;15.336;2023-10-08T02:43:43;10.90;99.90
3842;DHT22;1936;47.074;15.336;2023-10-08T02:45:50;11.00;99.90
3842;DHT22;1936;47.074;15.336;2023-10-08T02:47:54;10.90;99.90
3842;DHT22;1936;47.074;15.336;2023-10-08T02:49:58;10.90;99.90
3842;DHT22;1936;47.074;15.336;2023-10-08T02:52:02;10.80;99.90
3842;DHT22;1936;47.074;15.336;2023-10-08T02:54:07;10.90;99.90
3842;DHT22;1936;47.074;15.336;2023-10-08T02:56:18;10.90;99.90
3842;DHT22;1936;47.074;15.336;2023-10-08T02:58:24;10.90;99.90
3842;DHT22;1936;47.074;15.336;2023-10-08T03:00:29;10.90;99.90
3842;DHT22;1936;47.074;15.336;2023-10-08T03:02:37;11.00;99.90
3842;DHT22;1936;47.074;15.336;2023-10-08T03:04:42;11.00;99.90
3842;DHT22;1936;47.074;15.336;2023-10-08T03:06:49;11.00;99.90
3842;DHT22;1936;47.074;15.336;2023-10-08T03:08:53;11.00;99.90
3842;DHT22;1936;47.074;15.336;2023-10-08T03:10:56;11.00;99.90
3842;DHT22;1936;47.074;15.336;2023-10-08T03:13:05;11.00;99.90
3842;DHT22;1936;47.074;15.336;2023-10-08T03:15:09;11.00;99.90
3842;DHT22;1936;47.074;15.336;2023-10-08T03:17:16;10.90;99.90
3842;DHT22;1936;47.074;15.336;2023-10-08T03:19:24;11.00;99.90
3842;DHT22;1936;47.074;15.336;2023-10-08T03:21:27;11.00;99.90
3842;DHT22;1936;47.074;15.336;2023-10-08T03:23:51;11.10;99.90
3842;DHT22;1936;47.074;15.336;2023-10-08T03:26:01;11.20;99.90
3842;DHT22;1936;47.074;15.336;2023-10-08T03:28:12;11.30;99.90
3842;DHT22;1936;47.074;15.336;2023-10-08T03:30:18;11.30;99.90
3842;DHT22;1936;47.074;15.336;2023-10-08T03:32:22;11.30;99.90
3842;DHT22;1936;47.074;15.336;2023-10-08T03:34:30;11.30;99.90
3842;DHT22;1936;47.074;15.336;2023-10-08T03:36:36;11.30;99.90
3842;DHT22;1936;47.074;15.336;2023-10-08T03:38:46;11.30;99.90
3842;DHT22;1936;47.074;15.336;2023-10-08T03:40:54;11.30;99.90
3842;DHT22;1936;47.074;15.336;2023-10-08T03:43:03;11.30;99.90
3842;DHT22;1936;47.074;15.336;2023-10-08T03:45:17;11.30;99.90
3842;DHT22;1936;47.074;15.336;2023-10-08T03:47:25;11.20;99.90
3842;DHT22;1936;47.074;15.336;2023-10-08T03:49:30;11.20;99.90
3842;DHT22;1936;47.074;15.336;2023-10-08T03:51:34;11.20;99.90
3842;DHT22;1936;47.074;15.336;2023-10-08T03:53:41;11.20;99.90
3842;DHT22;1936;47.074;15.336;2023-10-08T03:56:00;11.20;99.90
3842;DHT22;1936;47.074;15.336;2023-10-08T03:58:08;11.20;99.90
3842;DHT22;1936;47.074;15.336;2023-10-08T04:00:16;11.30;99.90
3842;DHT22;1936;47.074;15.336;2023-10-08T04:02:20;11.30;99.90
3842;DHT22;1936;47.074;15.336;2023-10-08T04:04:36;11.30;99.90
3842;DHT22;1936;47.074;15.336;2023-10-08T04:06:53;11.30;99.90
3842;DHT22;1936;47.074;15.336;2023-10-08T04:08:57;11.30;99.90
3842;DHT22;1936;47.074;15.336;2023-10-08T04:11:14;11.30;99.90
3842;DHT22;1936;47.074;15.336;2023-10-08T04:13:33;11.30;99.90
3842;DHT22;1936;47.074;15.336;2023-10-08T04:15:35;11.30;99.90
3842;DHT22;1936;47.074;15.336;2023-10-08T04:17:43;11.40;99.90
3842;DHT22;1936;47.074;15.336;2023-10-08T04:19:49;11.40;99.90
3842;DHT22;1936;47.074;15.336;2023-10-08T04:21:53;11.30;99.90
3842;DHT22;1936;47.074;15.336;2023-10-08T04:24:00;11.40;99.90
3842;DHT22;1936;47.074;15.336;2023-10-08T04:26:06;11.40;99.90
3842;DHT22;1936;47.074;15.336;2023-10-08T04:28:10;11.40;99.90
3842;DHT22;1936;47.074;15.336;2023-10-08T04:30:16;11.40;99.90
3842;DHT22;1936;47.074;15.336;2023-10-08T04:32:20;11.50;99.90
3842;DHT22;1936;47.074;15.336;2023-10-08T04:34:28;11.60;99.90
3842;DHT22;1936;47.074;15.336;2023-10-08T04:36:33;11.60;99.90
3842;DHT22;1936;47.074;15.336;2023-10-08T04:38:36;11.70;99.90
3842;DHT22;1936;47.074;15.336;2023-10-08T04:40:42;11.70;99.90
3842;DHT22;1936;47.074;15.336;2023-10-08T04:42:50;11.70;99.90
3842;DHT22;1936;47.074;15.336;2023-10-08T04:44:56;11.70;99.90
3842;DHT22;1936;47.074;15.336;2023-10-08T04:47:01;11.70;99.90
3842;DHT22;1936;47.074;15.336;2023-10-08T04:49:09;11.70;99.90
3842;DHT22;1936;47.074;15.336;2023-10-08T04:51:19;11.70;99.90
3842;DHT22;1936;47.074;15.336;2023-10-08T04:53:27;11.70;99.90
3842;DHT22;1936;47.074;15.336;2023-10-08T04:55:38;11.70;99.90
3842;DHT22;1936;47.074;15.336;2023-10-08T04:57:50;11.70;99.90
3842;DHT22;1936;47.074;15.336;2023-10-08T04:59:55;11.70;99.90
3842;DHT22;1936;47.074;15.336;2023-10-08T05:02:00;11.70;99.90
3842;DHT22;1936;47.074;15.336;2023-10-08T05:04:24;11.70;99.90
3842;DHT22;1936;47.074;15.336;2023-10-08T05:06:33;11.80;99.90
3842;DHT22;1936;47.074;15.336;2023-10-08T05:08:53;11.80;99.90
3842;DHT22;1936;47.074;15.336;2023-10-08T05:11:01;11.80;99.90
3842;DHT22;1936;47.074;15.336;2023-10-08T05:13:17;11.90;99.90
3842;DHT22;1936;47.074;15.336;2023-10-08T05:15:32;12.00;99.90
3842;DHT22;1936;47.074;15.336;2023-10-08T05:17:35;12.00;99.90
3842;DHT22;1936;47.074;15.336;2023-10-08T05:19:49;12.00;99.90
3842;DHT22;1936;47.074;15.336;2023-10-08T05:21:58;12.10;99.90
3842;DHT22;1936;47.074;15.336;2023-10-08T05:24:21;12.20;99.90
3842;DHT22;1936;47.074;15.336;2023-10-08T05:26:29;12.20;99.90
3842;DHT22;1936;47.074;15.336;2023-10-08T05:28:44;12.30;99.90
3842;DHT22;1936;47.074;15.336;2023-10-08T05:30:49;12.20;99.90
3842;DHT22;1936;47.074;15.336;2023-10-08T05:32:58;12.30;99.90
3842;DHT22;1936;47.074;15.336;2023-10-08T05:35:14;12.30;99.90
3842;DHT22;1936;47.074;15.336;2023-10-08T05:37:51;12.30;99.90
3842;DHT22;1936;47.074;15.336;2023-10-08T05:40:16;12.30;99.90
3842;DHT22;1936;47.074;15.336;2023-10-08T05:42:45;12.40;99.90
3842;DHT22;1936;47.074;15.336;2023-10-08T05:44:48;12.40;99.90
3842;DHT22;1936;47.074;15.336;2023-10-08T05:47:14;12.40;99.90
3842;DHT22;1936;47.074;15.336;2023-10-08T05:49:40;12.50;99.90
3842;DHT22;1936;47.074;15.336;2023-10-08T05:51:56;12.50;99.90
3842;DHT22;1936;47.074;15.336;2023-10-08T05:54:19;12.50;99.90
3842;DHT22;1936;47.074;15.336;2023-10-08T05:56:39;12.50;99.90
3842;DHT22;1936;47.074;15.336;2023-10-08T05:59:04;12.50;99.90
3842;DHT22;1936;47.074;15.336;2023-10-08T06:01:20;12.60;99.90
3842;DHT22;1936;47.074;15.336;2023-10-08T06:03:41;12.60;99.90
3842;DHT22;1936;47.074;15.336;2023-10-08T06:06:04;12.60;99.90
3842;DHT22;1936;47.074;15.336;2023-10-08T06:08:24;12.60;99.90
3842;DHT22;1936;47.074;15.336;2023-10-08T06:10:51;12.60;99.90
3842;DHT22;1936;47.074;15.336;2023-10-08T06:13:01;12.70;99.90
3842;DHT22;1936;47.074;15.336;2023-10-08T06:15:07;12.80;99.90
3842;DHT22;1936;47.074;15.336;2023-10-08T06:17:10;12.80;99.90
3842;DHT22;1936;47.074;15.336;2023-10-08T06:19:26;12.90;99.90
3842;DHT22;1936;47.074;15.336;2023-10-08T06:21:28;12.90;99.90
3842;DHT22;1936;47.074;15.336;2023-10-08T06:23:31;12.80;99.90
3842;DHT22;1936;47.074;15.336;2023-10-08T06:25:37;12.90;99.90
3842;DHT22;1936;47.074;15.336;2023-10-08T06:27:47;12.90;99.90
3842;DHT22;1936;47.074;15.336;2023-10-08T06:29:51;12.90;99.90
3842;DHT22;1936;47.074;15.336;2023-10-08T06:31:58;12.90;99.90
3842;DHT22;1936;47.074;15.336;2023-10-08T06:34:04;13.00;99.90
3842;DHT22;1936;47.074;15.336;2023-10-08T06:36:11;13.00;99.90
3842;DHT22;1936;47.074;15.336;2023-10-08T06:38:17;13.10;99.90
3842;DHT22;1936;47.074;15.336;2023-10-08T06:40:21;13.10;99.90
3842;DHT22;1936;47.074;15.336;2023-10-08T06:42:43;13.10;99.90
3842;DHT22;1936;47.074;15.336;2023-10-08T06:44:46;13.10;99.90
3842;DHT22;1936;47.074;15.336;2023-10-08T06:46:52;13.20;99.90
3842;DHT22;1936;47.074;15.336;2023-10-08T06:48:57;13.20;99.90
3842;DHT22;1936;47.074;15.336;2023-10-08T06:51:00;13.30;99.90
3842;DHT22;1936;47.074;15.336;2023-10-08T06:53:09;13.30;99.90
3842;DHT22;1936;47.074;15.336;2023-10-08T06:55:13;13.30;99.90
3842;DHT22;1936;47.074;15.336;2023-10-08T06:57:19;13.30;99.90
3842;DHT22;1936;47.074;15.336;2023-10-08T06:59:23;13.40;99.90
3842;DHT22;1936;47.074;15.336;2023-10-08T07:01:27;13.40;99.90
3842;DHT22;1936;47.074;15.336;2023-10-08T07:03:42;13.50;99.90
3842;DHT22;1936;47.074;15.336;2023-10-08T07:05:49;13.50;99.90
3842;DHT22;1936;47.074;15.336;2023-10-08T07:08:02;13.50;99.90
3842;DHT22;1936;47.074;15.336;2023-10-08T07:10:09;13.60;99.90
3842;DHT22;1936;47.074;15.336;2023-10-08T07:12:13;13.70;99.90
3842;DHT22;1936;47.074;15.336;2023-10-08T07:14:17;13.70;99.90
3842;DHT22;1936;47.074;15.336;2023-10-08T07:16:21;13.70;99.90
3842;DHT22;1936;47.074;15.336;2023-10-08T07:18:24;13.80;99.90
3842;DHT22;1936;47.074;15.336;2023-10-08T07:20:30;13.80;99.90
3842;DHT22;1936;47.074;15.336;2023-10-08T07:22:40;13.90;99.90
3842;DHT22;1936;47.074;15.336;2023-10-08T07:24:45;14.00;99.90
3842;DHT22;1936;47.074;15.336;2023-10-08T07:26:53;14.00;99.90
3842;DHT22;1936;47.074;15.336;2023-10-08T07:28:58;14.10;99.90
3842;DHT22;1936;47.074;15.336;2023-10-08T07:31:01;14.20;99.90
3842;DHT22;1936;47.074;15.336;2023-10-08T07:33:04;14.30;99.90
3842;DHT22;1936;47.074;15.336;2023-10-08T07:35:08;14.30;99.90
3842;DHT22;1936;47.074;15.336;2023-10-08T07:37:28;14.40;99.90
3842;DHT22;1936;47.074;15.336;2023-10-08T07:39:31;14.50;99.90
3842;DHT22;1936;47.074;15.336;2023-10-08T07:41:46;14.50;99.90
3842;DHT22;1936;47.074;15.336;2023-10-08T07:43:50;14.60;99.90
3842;DHT22;1936;47.074;15.336;2023-10-08T07:45:58;14.60;99.90
3842;DHT22;1936;47.074;15.336;2023-10-08T07:48:02;14.70;99.90
3842;DHT22;1936;47.074;15.336;2023-10-08T07:50:12;14.70;99.90
3842;DHT22;1936;47.074;15.336;2023-10-08T07:52:15;14.70;99.90
3842;DHT22;1936;47.074;15.336;2023-10-08T07:54:21;14.70;99.90
3842;DHT22;1936;47.074;15.336;2023-10-08T07:56:26;14.70;99.90
3842;DHT22;1936;47.074;15.336;2023-10-08T07:58:29;14.70;99.90
3842;DHT22;1936;47.074;15.336;2023-10-08T08:00:31;14.80;99.90
3842;DHT22;1936;47.074;15.336;2023-10-08T08:02:40;14.80;99.90
3842;DHT22;1936;47.074;15.336;2023-10-08T08:04:44;14.90;99.90
3842;DHT22;1936;47.074;15.336;2023-10-08T08:06:53;15.00;99.90
3842;DHT22;1936;47.074;15.336;2023-10-08T08:08:56;15.00;99.90
3842;DHT22;1936;47.074;15.336;2023-10-08T08:11:01;15.10;99.90
3842;DHT22;1936;47.074;15.336;2023-10-08T08:15:13;15.20;99.90
3842;DHT22;1936;47.074;15.336;2023-10-08T08:17:18;15.20;99.90
3842;DHT22;1936;47.074;15.336;2023-10-08T08:19:22;15.30;99.90
3842;DHT22;1936;47.074;15.336;2023-10-08T08:21:26;15.30;99.90
3842;DHT22;1936;47.074;15.336;2023-10-08T08:23:32;15.40;99.90
3842;DHT22;1936;47.074;15.336;2023-10-08T08:25:37;15.40;99.90
3842;DHT22;1936;47.074;15.336;2023-10-08T08:27:49;15.50;99.90
3842;DHT22;1936;47.074;15.336;2023-10-08T08:29:55;15.60;99.90
3842;DHT22;1936;47.074;15.336;2023-10-08T08:31:59;15.70;99.90
3842;DHT22;1936;47.074;15.336;2023-10-08T08:34:06;15.70;99.90
3842;DHT22;1936;47.074;15.336;2023-10-08T08:36:16;15.80;99.90
3842;DHT22;1936;47.074;15.336;2023-10-08T08:40:23;16.00;99.90
3842;DHT22;1936;47.074;15.336;2023-10-08T08:42:29;16.00;99.90
3842;DHT22;1936;47.074;15.336;2023-10-08T08:44:37;16.10;99.90
3842;DHT22;1936;47.074;15.336;2023-10-08T08:46:46;16.10;99.90
3842;DHT22;1936;47.074;15.336;2023-10-08T08:48:51;16.20;99.90
3842;DHT22;1936;47.074;15.336;2023-10-08T08:50:56;17.20;98.60
3842;DHT22;1936;47.074;15.336;2023-10-08T08:53:00;18.50;93.00
3842;DHT22;1936;47.074;15.336;2023-10-08T08:57:16;19.60;69.50
3842;DHT22;1936;47.074;15.336;2023-10-08T09:01:24;20.50;93.00
3842;DHT22;1936;47.074;15.336;2023-10-08T09:03:29;20.60;63.90
3842;DHT22;1936;47.074;15.336;2023-10-08T09:05:32;20.80;62.60
3842;DHT22;1936;47.074;15.336;2023-10-08T09:07:37;20.90;61.00
3842;DHT22;1936;47.074;15.336;2023-10-08T09:09:40;21.20;60.80
3842;DHT22;1936;47.074;15.336;2023-10-08T09:11:46;21.10;60.30
3842;DHT22;1936;47.074;15.336;2023-10-08T09:13:49;21.50;57.70
3842;DHT22;1936;47.074;15.336;2023-10-08T09:15:57;21.60;56.70
3842;DHT22;1936;47.074;15.336;2023-10-08T09:18:07;21.70;58.80
3842;DHT22;1936;47.074;15.336;2023-10-08T09:20:11;21.50;59.00
3842;DHT22;1936;47.074;15.336;2023-10-08T09:22:15;21.50;60.00
3842;DHT22;1936;47.074;15.336;2023-10-08T09:24:22;21.50;59.00
3842;DHT22;1936;47.074;15.336;2023-10-08T09:26:25;21.70;58.00
3842;DHT22;1936;47.074;15.336;2023-10-08T09:28:31;21.70;59.30
3842;DHT22;1936;47.074;15.336;2023-10-08T09:30:36;21.70;61.20
3842;DHT22;1936;47.074;15.336;2023-10-08T09:32:43;21.70;64.60
3842;DHT22;1936;47.074;15.336;2023-10-08T09:34:48;21.50;66.80
3842;DHT22;1936;47.074;15.336;2023-10-08T09:36:53;21.50;64.70
3842;DHT22;1936;47.074;15.336;2023-10-08T09:39:00;21.50;68.10
3842;DHT22;1936;47.074;15.336;2023-10-08T09:41:07;21.40;68.00
3842;DHT22;1936;47.074;15.336;2023-10-08T09:43:11;21.80;60.20
3842;DHT22;1936;47.074;15.336;2023-10-08T09:45:14;22.30;55.50
3842;DHT22;1936;47.074;15.336;2023-10-08T09:47:21;22.40;55.40
3842;DHT22;1936;47.074;15.336;2023-10-08T09:49:30;22.60;55.80
3842;DHT22;1936;47.074;15.336;2023-10-08T09:51:39;22.70;52.80
3842;DHT22;1936;47.074;15.336;2023-10-08T09:53:51;23.00;53.00
3842;DHT22;1936;47.074;15.336;2023-10-08T09:55:56;23.10;51.80
3842;DHT22;1936;47.074;15.336;2023-10-08T09:57:59;23.30;51.90
3842;DHT22;1936;47.074;15.336;2023-10-08T10:00:05;23.40;55.00
3842;DHT22;1936;47.074;15.336;2023-10-08T10:02:13;23.50;53.20
3842;DHT22;1936;47.074;15.336;2023-10-08T10:04:23;23.60;51.40
3842;DHT22;1936;47.074;15.336;2023-10-08T10:06:28;23.30;56.10
3842;DHT22;1936;47.074;15.336;2023-10-08T10:08:35;23.50;53.40
3842;DHT22;1936;47.074;15.336;2023-10-08T10:10:39;23.40;54.60
3842;DHT22;1936;47.074;15.336;2023-10-08T10:12:45;23.50;51.50
3842;DHT22;1936;47.074;15.336;2023-10-08T10:14:53;23.50;56.00
3842;DHT22;1936;47.074;15.336;2023-10-08T10:17:08;23.30;59.00
3842;DHT22;1936;47.074;15.336;2023-10-08T10:19:16;23.20;59.60
3842;DHT22;1936;47.074;15.336;2023-10-08T10:21:29;23.00;60.60
3842;DHT22;1936;47.074;15.336;2023-10-08T10:23:37;22.40;64.60
3842;DHT22;1936;47.074;15.336;2023-10-08T10:25:45;22.70;62.90
3842;DHT22;1936;47.074;15.336;2023-10-08T10:28:21;22.80;65.40
3842;DHT22;1936;47.074;15.336;2023-10-08T10:30:25;22.70;65.50
3842;DHT22;1936;47.074;15.336;2023-10-08T10:32:29;23.40;52.00
3842;DHT22;1936;47.074;15.336;2023-10-08T10:34:33;23.50;55.40
3842;DHT22;1936;47.074;15.336;2023-10-08T10:36:42;23.50;57.10
3842;DHT22;1936;47.074;15.336;2023-10-08T10:38:46;23.40;61.00
3842;DHT22;1936;47.074;15.336;2023-10-08T10:40:51;23.40;62.00
3842;DHT22;1936;47.074;15.336;2023-10-08T10:43:00;23.70;52.70
3842;DHT22;1936;47.074;15.336;2023-10-08T10:45:05;24.10;60.90
3842;DHT22;1936;47.074;15.336;2023-10-08T10:47:11;24.00;59.10
3842;DHT22;1936;47.074;15.336;2023-10-08T10:49:29;24.10;57.00
3842;DHT22;1936;47.074;15.336;2023-10-08T10:51:33;24.50;62.00
3842;DHT22;1936;47.074;15.336;2023-10-08T10:53:39;24.30;62.50
3842;DHT22;1936;47.074;15.336;2023-10-08T10:56:00;24.10;63.50
3842;DHT22;1936;47.074;15.336;2023-10-08T10:58:12;23.60;61.50
3842;DHT22;1936;47.074;15.336;2023-10-08T11:00:16;23.80;64.10
3842;DHT22;1936;47.074;15.336;2023-10-08T11:02:43;23.90;64.80
3842;DHT22;1936;47.074;15.336;2023-10-08T11:04:51;24.00;61.80
3842;DHT22;1936;47.074;15.336;2023-10-08T11:06:55;24.30;58.00
3842;DHT22;1936;47.074;15.336;2023-10-08T11:09:00;24.70;55.60
3842;DHT22;1936;47.074;15.336;2023-10-08T11:11:10;24.80;57.10
3842;DHT22;1936;47.074;15.336;2023-10-08T11:13:13;25.00;54.50
3842;DHT22;1936;47.074;15.336;2023-10-08T11:15:17;25.10;50.50
3842;DHT22;1936;47.074;15.336;2023-10-08T11:17:23;24.90;51.60
3842;DHT22;1936;47.074;15.336;2023-10-08T11:19:28;24.90;51.50
3842;DHT22;1936;47.074;15.336;2023-10-08T11:21:48;25.00;51.80
3842;DHT22;1936;47.074;15.336;2023-10-08T11:23:53;24.90;51.30
3842;DHT22;1936;47.074;15.336;2023-10-08T11:25:57;24.60;51.80
3842;DHT22;1936;47.074;15.336;2023-10-08T11:28:06;24.30;55.20
3842;DHT22;1936;47.074;15.336;2023-10-08T11:30:14;24.30;58.10
3842;DHT22;1936;47.074;15.336;2023-10-08T11:32:19;24.30;53.90
3842;DHT22;1936;47.074;15.336;2023-10-08T11:34:31;24.10;52.00
3842;DHT22;1936;47.074;15.336;2023-10-08T11:36:41;24.10;50.90
3842;DHT22;1936;47.074;15.336;2023-10-08T11:38:56;23.90;49.80
3842;DHT22;1936;47.074;15.336;2023-10-08T11:41:10;23.70;50.40
3842;DHT22;1936;47.074;15.336;2023-10-08T11:43:24;23.70;50.50
3842;DHT22;1936;47.074;15.336;2023-10-08T11:45:30;23.60;52.70
3842;DHT22;1936;47.074;15.336;2023-10-08T11:47:41;23.70;51.30
3842;DHT22;1936;47.074;15.336;2023-10-08T11:49:47;23.50;50.80
3842;DHT22;1936;47.074;15.336;2023-10-08T11:51:53;23.50;51.70
3842;DHT22;1936;47.074;15.336;2023-10-08T11:53:59;23.50;50.40
3842;DHT22;1936;47.074;15.336;2023-10-08T11:56:03;23.50;52.50
3842;DHT22;1936;47.074;15.336;2023-10-08T11:58:15;23.50;50.60
3842;DHT22;1936;47.074;15.336;2023-10-08T12:00:24;23.50;52.40
3842;DHT22;1936;47.074;15.336;2023-10-08T12:02:33;23.60;51.00
3842;DHT22;1936;47.074;15.336;2023-10-08T12:04:37;23.50;51.40
3842;DHT22;1936;47.074;15.336;2023-10-08T12:06:42;23.40;51.60
3842;DHT22;1936;47.074;15.336;2023-10-08T12:08:49;23.40;51.60
3842;DHT22;1936;47.074;15.336;2023-10-08T12:10:56;23.50;51.10
3842;DHT22;1936;47.074;15.336;2023-10-08T12:13:02;23.50;52.40
3842;DHT22;1936;47.074;15.336;2023-10-08T12:15:08;23.50;52.60
3842;DHT22;1936;47.074;15.336;2023-10-08T12:17:14;23.60;52.00
3842;DHT22;1936;47.074;15.336;2023-10-08T12:19:19;23.60;52.70
3842;DHT22;1936;47.074;15.336;2023-10-08T12:21:26;23.60;51.70
3842;DHT22;1936;47.074;15.336;2023-10-08T12:23:31;23.60;51.70
3842;DHT22;1936;47.074;15.336;2023-10-08T12:25:36;23.50;51.50
3842;DHT22;1936;47.074;15.336;2023-10-08T12:27:39;23.50;51.70
3842;DHT22;1936;47.074;15.336;2023-10-08T12:29:43;23.40;53.30
3842;DHT22;1936;47.074;15.336;2023-10-08T12:31:46;23.30;52.10
3842;DHT22;1936;47.074;15.336;2023-10-08T12:33:53;23.30;55.80
3842;DHT22;1936;47.074;15.336;2023-10-08T12:35:59;22.90;56.70
3842;DHT22;1936;47.074;15.336;2023-10-08T12:38:13;22.80;58.60
3842;DHT22;1936;47.074;15.336;2023-10-08T12:40:17;22.70;63.40
3842;DHT22;1936;47.074;15.336;2023-10-08T12:42:25;22.60;63.70
3842;DHT22;1936;47.074;15.336;2023-10-08T12:44:29;22.50;63.20
3842;DHT22;1936;47.074;15.336;2023-10-08T12:46:32;22.30;64.60
3842;DHT22;1936;47.074;15.336;2023-10-08T12:48:37;22.30;54.20
3842;DHT22;1936;47.074;15.336;2023-10-08T12:50:41;22.40;55.00
3842;DHT22;1936;47.074;15.336;2023-10-08T12:52:55;22.40;55.40
3842;DHT22;1936;47.074;15.336;2023-10-08T12:54:58;22.50;52.40
3842;DHT22;1936;47.074;15.336;2023-10-08T12:57:05;22.40;57.20
3842;DHT22;1936;47.074;15.336;2023-10-08T12:59:11;22.30;57.10
3842;DHT22;1936;47.074;15.336;2023-10-08T13:01:23;22.20;54.80
3842;DHT22;1936;47.074;15.336;2023-10-08T13:03:30;22.20;55.30
3842;DHT22;1936;47.074;15.336;2023-10-08T13:05:35;22.00;59.20
3842;DHT22;1936;47.074;15.336;2023-10-08T13:07:40;21.90;59.60
3842;DHT22;1936;47.074;15.336;2023-10-08T13:09:44;21.80;59.50
3842;DHT22;1936;47.074;15.336;2023-10-08T13:11:48;21.60;61.60
3842;DHT22;1936;47.074;15.336;2023-10-08T13:13:53;21.40;63.70
3842;DHT22;1936;47.074;15.336;2023-10-08T13:15:58;21.50;55.80
3842;DHT22;1936;47.074;15.336;2023-10-08T13:18:05;21.60;60.40
3842;DHT22;1936;47.074;15.336;2023-10-08T13:20:09;21.50;63.70
3842;DHT22;1936;47.074;15.336;2023-10-08T13:22:15;21.40;66.60
3842;DHT22;1936;47.074;15.336;2023-10-08T13:24:23;21.20;64.80
3842;DHT22;1936;47.074;15.336;2023-10-08T13:26:30;21.10;64.20
3842;DHT22;1936;47.074;15.336;2023-10-08T13:28:35;21.20;69.40
3842;DHT22;1936;47.074;15.336;2023-10-08T13:30:38;21.20;67.00
3842;DHT22;1936;47.074;15.336;2023-10-08T13:32:42;21.30;68.80
3842;DHT22;1936;47.074;15.336;2023-10-08T13:34:47;21.40;68.20
3842;DHT22;1936;47.074;15.336;2023-10-08T13:36:51;21.50;67.10
3842;DHT22;1936;47.074;15.336;2023-10-08T13:38:54;21.60;69.20
3842;DHT22;1936;47.074;15.336;2023-10-08T13:41:00;21.70;71.40
3842;DHT22;1936;47.074;15.336;2023-10-08T13:43:06;21.70;73.00
3842;DHT22;1936;47.074;15.336;2023-10-08T13:45:09;21.70;72.30
3842;DHT22;1936;47.074;15.336;2023-10-08T13:47:28;21.60;75.20